Time;durP1;ratioP1;P1;durP2;ratioP2;P2;SDS_P1;SDS_P2;PMS_P1;PMS_P2;Temp;Humidity;BMP_temperature;BMP_pressure;BME280_temperature;BME280_humidity;BME280_pressure;Samples;Min_cycle;Max_cycle;Signal;HPM_P1;HPM_P2
2021/11/22 00:01:24;;;;;;;;;;;;;;;7.64;100.00;100200.72;5079881;28;20309;-79
2021/11/22 00:03:51;;;;;;;;;;;;;;;7.49;100.00;100186.97;5097378;28;20355;-79
2021/11/22 00:06:18;;;;;;;;;;;;;;;7.48;100.00;100186.19;5097888;28;19946;-79
2021/11/22 00:08:45;;;;;;;;;;;;;;;7.47;100.00;100198.47;5097689;28;19924;-79
2021/11/22 00:11:12;;;;;;;;;;;;;;;7.42;100.00;100204.38;5079522;28;19928;-79
2021/11/22 00:13:40;;;;;;;;;;;;;;;7.42;100.00;100207.16;5097633;28;19973;-79
2021/11/22 00:16:07;;;;;;;;;;;;;;;7.58;100.00;100202.22;5097508;28;20026;-79
2021/11/22 00:18:34;;;;;;;;;;;;;;;7.46;100.00;100202.44;5079066;28;19924;-79
2021/11/22 00:21:03;;;;;;;;;;;;;;;7.71;100.00;100200.78;5079376;28;19967;-79
2021/11/22 00:23:30;;;;;;;;;;;;;;;7.69;100.00;100203.16;5097421;28;19924;-79
2021/11/22 00:25:57;;;;;;;;;;;;;;;7.63;100.00;100212.22;5079101;28;19973;-79
2021/11/22 00:28:24;;;;;;;;;;;;;;;7.60;100.00;100211.00;5079181;28;20578;-79
2021/11/22 00:31:10;;;;;;;;;;;;;;;7.74;100.00;100216.72;5081843;28;19935;-79
2021/11/22 00:33:50;;;;;;;;;;;;;;;7.85;100.00;100216.88;5064234;28;20020;-79
2021/11/22 00:36:50;;;;;;;;;;;;;;;7.77;100.00;100226.31;5085682;28;20298;-80
2021/11/22 00:39:17;;;;;;;;;;;;;;;7.77;100.00;100224.31;5079016;28;19931;-79
2021/11/22 00:41:44;;;;;;;;;;;;;;;7.62;100.00;100224.53;5097229;28;19935;-79
2021/11/22 00:44:11;;;;;;;;;;;;;;;7.48;100.00;100233.47;5096829;28;19932;-79
2021/11/22 00:46:38;;;;;;;;;;;;;;;7.54;100.00;100245.88;5096725;28;20018;-79
2021/11/22 00:49:05;;;;;;;;;;;;;;;7.73;100.00;100247.72;5096947;28;19930;-79
2021/11/22 00:51:32;;;;;;;;;;;;;;;7.46;100.00;100249.72;5096846;28;19924;-80
2021/11/22 00:54:00;;;;;;;;;;;;;;;7.51;100.00;100256.94;5079104;28;20375;-79
2021/11/22 00:56:29;;;;;;;;;;;;;;;7.43;100.00;100261.59;5096814;28;19925;-79
2021/11/22 00:58:56;;;;;;;;;;;;;;;7.54;100.00;100262.56;5096779;28;19932;-79
2021/11/22 01:01:23;;;;;;;;;;;;;;;7.83;100.00;100253.41;5078818;28;19955;-80
2021/11/22 01:03:50;;;;;;;;;;;;;;;7.69;100.00;100256.03;5096587;28;19924;-79
2021/11/22 01:06:18;;;;;;;;;;;;;;;7.73;100.00;100251.31;5077697;28;19932;-79
2021/11/22 01:08:45;;;;;;;;;;;;;;;7.70;100.00;100254.03;5078539;28;19924;-79
2021/11/22 01:11:13;;;;;;;;;;;;;;;7.57;100.00;100250.69;5078881;28;19950;-79
2021/11/22 01:13:40;;;;;;;;;;;;;;;7.91;100.00;100259.88;5096518;28;19931;-79
2021/11/22 01:16:11;;;;;;;;;;;;;;;7.95;100.00;100258.75;5096232;28;19924;-78
2021/11/22 01:18:38;;;;;;;;;;;;;;;7.95;100.00;100255.97;5078297;28;19931;-79
2021/11/22 01:21:05;;;;;;;;;;;;;;;7.83;100.00;100258.97;5096362;28;19924;-79
2021/11/22 01:23:33;;;;;;;;;;;;;;;7.94;100.00;100253.56;5078583;28;20281;-79
2021/11/22 01:26:00;;;;;;;;;;;;;;;7.83;100.00;100261.78;5096198;28;19924;-79
2021/11/22 01:28:27;;;;;;;;;;;;;;;7.91;100.00;100260.69;5096143;28;19956;-79
2021/11/22 01:30:54;;;;;;;;;;;;;;;7.99;100.00;100264.38;5061171;28;19930;-78
2021/11/22 01:33:21;;;;;;;;;;;;;;;7.98;100.00;100258.00;5078000;28;20007;-79
2021/11/22 01:35:48;;;;;;;;;;;;;;;8.08;100.00;100260.13;5096107;28;19924;-79
2021/11/22 01:38:15;;;;;;;;;;;;;;;8.09;100.00;100260.94;5078068;28;19924;-79
2021/11/22 01:40:43;;;;;;;;;;;;;;;8.02;100.00;100267.22;5078037;28;20008;-79
2021/11/22 01:43:14;;;;;;;;;;;;;;;8.01;100.00;100276.72;5095664;28;20011;-78
2021/11/22 01:45:42;;;;;;;;;;;;;;;7.97;100.00;100266.72;5060254;28;20430;-79
2021/11/22 01:48:09;;;;;;;;;;;;;;;7.83;100.00;100270.13;5077886;28;19928;-79
2021/11/22 01:50:36;;;;;;;;;;;;;;;7.85;100.00;100275.31;5096124;28;19955;-79
2021/11/22 01:53:04;;;;;;;;;;;;;;;7.83;100.00;100281.25;5095892;28;20009;-79
2021/11/22 01:55:31;;;;;;;;;;;;;;;7.74;100.00;100275.16;5095756;28;19981;-78
2021/11/22 01:57:59;;;;;;;;;;;;;;;7.96;100.00;100274.28;5095334;28;19977;-79
2021/11/22 02:00:30;;;;;;;;;;;;;;;7.97;100.00;100278.66;5095744;28;20317;-77
2021/11/22 02:02:58;;;;;;;;;;;;;;;7.93;100.00;100275.03;5077705;28;19924;-77
2021/11/22 02:05:25;;;;;;;;;;;;;;;7.62;100.00;100272.59;5077575;28;20317;-77
2021/11/22 02:07:53;;;;;;;;;;;;;;;7.50;100.00;100272.81;5077409;28;19977;-77
2021/11/22 02:10:20;;;;;;;;;;;;;;;7.78;100.00;100284.38;5077698;28;19928;-77
2021/11/22 02:12:47;;;;;;;;;;;;;;;7.66;100.00;100281.81;5095137;28;20424;-79
2021/11/22 02:15:15;;;;;;;;;;;;;;;7.54;100.00;100282.03;5077247;28;19931;-78
2021/11/22 02:17:43;;;;;;;;;;;;;;;7.76;100.00;100289.50;5076343;28;20256;-79
2021/11/22 02:20:12;;;;;;;;;;;;;;;7.74;100.00;100294.63;5095415;28;19974;-77
2021/11/22 02:22:42;;;;;;;;;;;;;;;7.71;100.00;100289.81;5072777;28;19928;-76
2021/11/22 02:25:10;;;;;;;;;;;;;;;7.62;100.00;100292.06;5056788;28;19978;-77
2021/11/22 02:27:38;;;;;;;;;;;;;;;7.53;100.00;100294.31;5074338;28;19932;-76
2021/11/22 02:30:06;;;;;;;;;;;;;;;7.39;100.00;100303.22;5074773;28;19929;-77
2021/11/22 02:32:39;;;;;;;;;;;;;;;7.58;100.00;100302.34;5073203;28;19978;-76
2021/11/22 02:35:07;;;;;;;;;;;;;;;7.29;100.00;100305.84;5074950;28;19947;-79
2021/11/22 02:37:34;;;;;;;;;;;;;;;7.45;100.00;100303.75;5090108;28;20390;-77
2021/11/22 02:40:01;;;;;;;;;;;;;;;7.74;100.00;100302.19;5056848;28;19924;-76
2021/11/22 02:42:30;;;;;;;;;;;;;;;7.76;100.00;100305.38;5074111;28;20015;-77
2021/11/22 02:44:58;;;;;;;;;;;;;;;7.64;100.00;100300.84;5074430;28;19924;-76
2021/11/22 02:47:25;;;;;;;;;;;;;;;7.83;100.00;100303.50;5056779;28;19932;-77
2021/11/22 02:49:53;;;;;;;;;;;;;;;7.99;100.00;100311.69;5056982;28;19963;-76
2021/11/22 02:52:20;;;;;;;;;;;;;;;7.80;100.00;100303.47;5074406;28;19993;-77
2021/11/22 02:54:47;;;;;;;;;;;;;;;7.90;100.00;100303.63;5074157;28;19931;-77
2021/11/22 02:57:14;;;;;;;;;;;;;;;7.22;100.00;100289.06;5074010;28;19929;-79
2021/11/22 02:59:42;;;;;;;;;;;;;;;7.72;100.00;100302.56;5056514;28;19928;-77
2021/11/22 03:02:12;;;;;;;;;;;;;;;7.67;100.00;100305.66;5073946;28;19929;-77
2021/11/22 03:04:42;;;;;;;;;;;;;;;7.53;100.00;100316.56;5073337;28;19971;-76
2021/11/22 03:07:09;;;;;;;;;;;;;;;7.69;100.00;100314.44;5073419;28;20009;-77
2021/11/22 03:09:36;;;;;;;;;;;;;;;7.47;100.00;100315.28;5073271;28;19990;-79
2021/11/22 03:12:05;;;;;;;;;;;;;;;7.55;100.00;100311.44;5073085;28;19924;-76
2021/11/22 03:14:33;;;;;;;;;;;;;;;7.24;100.00;100320.84;5055482;28;19928;-79
2021/11/22 03:17:00;;;;;;;;;;;;;;;7.44;100.00;100316.03;5055307;28;19931;-79
2021/11/22 03:19:27;;;;;;;;;;;;;;;7.62;100.00;100314.31;5073196;28;19978;-78
2021/11/22 03:21:54;;;;;;;;;;;;;;;7.43;100.00;100317.22;5055427;28;19960;-78
2021/11/22 03:24:21;;;;;;;;;;;;;;;7.59;100.00;100325.41;5073274;28;19924;-78
2021/11/22 03:26:48;;;;;;;;;;;;;;;7.69;100.00;100316.41;5072873;28;19932;-78
2021/11/22 03:29:15;;;;;;;;;;;;;;;7.65;100.00;100321.91;5073281;28;19931;-76
2021/11/22 03:31:43;;;;;;;;;;;;;;;7.53;100.00;100321.34;5071920;28;19931;-79
2021/11/22 03:34:12;;;;;;;;;;;;;;;7.62;100.00;100319.88;5053689;28;19932;-79
2021/11/22 03:36:40;;;;;;;;;;;;;;;7.72;100.00;100316.47;5073700;28;19924;-77
2021/11/22 03:39:13;;;;;;;;;;;;;;;7.49;100.00;100323.25;5073649;28;19947;-76
2021/11/22 03:41:40;;;;;;;;;;;;;;;7.36;100.00;100325.44;5089088;28;19924;-78
2021/11/22 03:44:11;;;;;;;;;;;;;;;7.52;100.00;100325.28;5073360;28;19947;-79
2021/11/22 03:46:39;;;;;;;;;;;;;;;7.51;100.00;100324.50;5073386;28;20085;-78
2021/11/22 03:49:06;;;;;;;;;;;;;;;7.32;100.00;100324.56;5073679;28;20065;-78
2021/11/22 03:51:33;;;;;;;;;;;;;;;7.45;100.00;100326.00;5089093;28;19925;-79
2021/11/22 03:54:00;;;;;;;;;;;;;;;7.42;100.00;100328.69;5073196;28;20475;-79
2021/11/22 03:56:27;;;;;;;;;;;;;;;7.37;100.00;100338.16;5089017;28;19925;-79
2021/11/22 03:58:54;;;;;;;;;;;;;;;7.27;100.00;100333.19;5073310;28;19963;-79
2021/11/22 04:01:23;;;;;;;;;;;;;;;7.55;100.00;100318.97;5073405;28;19931;-79
2021/11/22 04:03:50;;;;;;;;;;;;;;;7.69;100.00;100320.00;5073426;28;19931;-79
2021/11/22 04:06:17;;;;;;;;;;;;;;;7.56;100.00;100315.81;5073275;28;19931;-79
2021/11/22 04:08:44;;;;;;;;;;;;;;;7.68;100.00;100321.16;5073154;28;19928;-79
2021/11/22 04:11:12;;;;;;;;;;;;;;;7.60;100.00;100338.94;5073306;28;19952;-79
2021/11/22 04:13:48;;;;;;;;;;;;;;;7.53;100.00;100327.69;5056728;28;19924;-78
2021/11/22 04:16:23;;;;;;;;;;;;;;;7.85;100.00;100323.44;5087704;28;19924;-79
2021/11/22 04:19:00;;;;;;;;;;;;;;;7.77;100.00;100318.91;5073435;28;20015;-79
2021/11/22 04:21:27;;;;;;;;;;;;;;;7.78;100.00;100320.56;5073429;28;19924;-78
2021/11/22 04:24:03;;;;;;;;;;;;;;;7.46;100.00;100322.03;5072133;28;19925;-79
2021/11/22 04:26:31;;;;;;;;;;;;;;;7.35;100.00;100326.59;5073107;28;20341;-79
2021/11/22 04:28:59;;;;;;;;;;;;;;;7.72;100.00;100327.63;5055347;28;19960;-79
2021/11/22 04:31:26;;;;;;;;;;;;;;;7.80;100.00;100332.09;5055320;28;20280;-79
2021/11/22 04:33:53;;;;;;;;;;;;;;;7.72;100.00;100335.97;5072994;28;20311;-79
2021/11/22 04:36:20;;;;;;;;;;;;;;;7.73;100.00;100339.53;5055119;28;20019;-79
2021/11/22 04:38:47;;;;;;;;;;;;;;;7.92;100.00;100340.22;5054980;28;20401;-79
2021/11/22 04:41:15;;;;;;;;;;;;;;;7.84;100.00;100337.72;5075908;28;20023;-79
2021/11/22 04:43:42;;;;;;;;;;;;;;;7.80;100.00;100337.66;5042088;28;20552;-79
2021/11/22 04:46:09;;;;;;;;;;;;;;;7.74;100.00;100344.72;5076374;28;19988;-78
2021/11/22 04:48:37;;;;;;;;;;;;;;;7.58;100.00;100341.28;5059034;28;19931;-79
2021/11/22 04:51:04;;;;;;;;;;;;;;;7.55;100.00;100353.16;5058571;28;20394;-78
2021/11/22 04:53:31;;;;;;;;;;;;;;;7.82;100.00;100343.66;5076264;28;20378;-79
2021/11/22 04:55:58;;;;;;;;;;;;;;;7.68;100.00;100356.56;5076335;28;19925;-79
2021/11/22 04:58:26;;;;;;;;;;;;;;;7.92;100.00;100361.69;5076332;28;19989;-79
2021/11/22 05:00:54;;;;;;;;;;;;;;;8.15;100.00;100354.88;5076275;28;19932;-79
2021/11/22 05:03:21;;;;;;;;;;;;;;;8.38;100.00;100358.41;5058451;28;19930;-79
2021/11/22 05:05:48;;;;;;;;;;;;;;;8.14;100.00;100363.59;5076165;28;19924;-79
2021/11/22 05:08:15;;;;;;;;;;;;;;;8.03;100.00;100360.66;5058160;28;19932;-79
2021/11/22 05:10:44;;;;;;;;;;;;;;;7.85;100.00;100362.38;5076214;28;19935;-79
2021/11/22 05:13:12;;;;;;;;;;;;;;;7.69;100.00;100370.09;5076027;28;19924;-79
2021/11/22 05:15:40;;;;;;;;;;;;;;;8.07;100.00;100369.09;5075957;28;20268;-79
2021/11/22 05:18:08;;;;;;;;;;;;;;;8.12;100.00;100377.91;5076065;28;19924;-79
2021/11/22 05:20:36;;;;;;;;;;;;;;;7.91;100.00;100374.81;5041482;28;19929;-78
2021/11/22 05:23:03;;;;;;;;;;;;;;;7.82;100.00;100379.81;5057809;28;19932;-79
2021/11/22 05:25:31;;;;;;;;;;;;;;;8.01;100.00;100387.28;5091473;28;19925;-78
2021/11/22 05:27:58;;;;;;;;;;;;;;;8.02;100.00;100386.91;5057814;28;19972;-79
2021/11/22 05:30:26;;;;;;;;;;;;;;;8.09;100.00;100384.22;5058132;28;19928;-79
2021/11/22 05:32:53;;;;;;;;;;;;;;;7.93;100.00;100380.81;5058012;28;19935;-79
2021/11/22 05:35:21;;;;;;;;;;;;;;;7.78;100.00;100390.13;5075530;28;19924;-78
2021/11/22 05:37:48;;;;;;;;;;;;;;;7.98;100.00;100394.38;5074159;28;19959;-79
2021/11/22 05:40:16;;;;;;;;;;;;;;;7.87;100.00;100387.88;5057890;28;19924;-79
2021/11/22 05:42:43;;;;;;;;;;;;;;;7.93;100.00;100388.34;5057811;28;19935;-79
2021/11/22 05:45:11;;;;;;;;;;;;;;;7.92;100.00;100400.66;5074114;28;20591;-79
2021/11/22 05:47:38;;;;;;;;;;;;;;;7.91;100.00;100404.59;5057553;28;19931;-79
2021/11/22 05:50:07;;;;;;;;;;;;;;;7.70;100.00;100410.63;5057533;28;19924;-79
2021/11/22 05:52:35;;;;;;;;;;;;;;;7.76;100.00;100409.16;5075466;28;19924;-79
2021/11/22 05:55:05;;;;;;;;;;;;;;;7.75;100.00;100415.91;5075300;28;19978;-79
2021/11/22 05:57:32;;;;;;;;;;;;;;;7.78;100.00;100417.13;5075371;28;19947;-79
2021/11/22 05:59:59;;;;;;;;;;;;;;;7.82;100.00;100413.22;5075258;28;19968;-79
2021/11/22 06:02:26;;;;;;;;;;;;;;;8.03;100.00;100421.91;5075166;28;19925;-79
2021/11/22 06:04:53;;;;;;;;;;;;;;;7.68;100.00;100418.53;5056856;28;20337;-79
2021/11/22 06:07:21;;;;;;;;;;;;;;;7.62;100.00;100436.72;5074991;28;19964;-79
2021/11/22 06:09:48;;;;;;;;;;;;;;;7.72;100.00;100433.34;5057184;28;19925;-79
2021/11/22 06:12:15;;;;;;;;;;;;;;;7.89;100.00;100446.72;5057079;28;19967;-79
2021/11/22 06:14:42;;;;;;;;;;;;;;;7.71;100.00;100445.63;5073867;28;19970;-79
2021/11/22 06:17:09;;;;;;;;;;;;;;;7.71;100.00;100453.97;5090633;28;19928;-79
2021/11/22 06:19:37;;;;;;;;;;;;;;;7.74;100.00;100460.78;5040483;28;19925;-79
2021/11/22 06:22:04;;;;;;;;;;;;;;;7.80;100.00;100465.66;5074696;28;19966;-79
2021/11/22 06:24:32;;;;;;;;;;;;;;;7.70;100.00;100469.06;5074788;28;19925;-79
2021/11/22 06:26:59;;;;;;;;;;;;;;;7.71;100.00;100469.88;5074633;28;20015;-79
2021/11/22 06:29:26;;;;;;;;;;;;;;;7.68;100.00;100470.63;5040174;28;19924;-79
2021/11/22 06:31:53;;;;;;;;;;;;;;;7.83;100.00;100480.81;5074773;28;19936;-79
2021/11/22 06:34:21;;;;;;;;;;;;;;;7.85;100.00;100470.91;5089886;28;19924;-79
2021/11/22 06:36:48;;;;;;;;;;;;;;;7.59;100.00;100476.41;5074521;28;19978;-79
2021/11/22 06:39:15;;;;;;;;;;;;;;;7.74;100.00;100478.28;5056674;28;20038;-79
2021/11/22 06:41:42;;;;;;;;;;;;;;;8.03;100.00;100485.94;5056715;28;19928;-79
2021/11/22 06:44:09;;;;;;;;;;;;;;;7.80;100.00;100482.34;5040014;28;19925;-79
2021/11/22 06:46:36;;;;;;;;;;;;;;;7.60;100.00;100488.34;5074343;28;20391;-79
2021/11/22 06:49:03;;;;;;;;;;;;;;;7.67;100.00;100497.63;5074171;28;19924;-79
2021/11/22 06:51:30;;;;;;;;;;;;;;;7.72;100.00;100491.78;5074504;28;19925;-81
2021/11/22 06:53:58;;;;;;;;;;;;;;;7.73;100.00;100504.50;5090314;28;19931;-81
2021/11/22 06:56:25;;;;;;;;;;;;;;;7.86;100.00;100497.56;5056674;28;19928;-81
2021/11/22 06:58:52;;;;;;;;;;;;;;;7.75;100.00;100507.72;5056612;28;19925;-77
2021/11/22 07:01:20;;;;;;;;;;;;;;;7.74;100.00;100516.44;5074378;28;19964;-84
2021/11/22 07:03:47;;;;;;;;;;;;;;;7.71;100.00;100517.97;5074838;28;19932;-81
2021/11/22 07:06:15;;;;;;;;;;;;;;;7.78;100.00;100518.09;5059681;28;19928;-82
2021/11/22 07:08:42;;;;;;;;;;;;;;;7.66;100.00;100526.63;5094517;28;20084;-81
2021/11/22 07:11:10;;;;;;;;;;;;;;;7.60;100.00;100530.88;5059636;28;20311;-83
2021/11/22 07:13:38;;;;;;;;;;;;;;;7.89;100.00;100530.22;5076358;28;19978;-82
2021/11/22 07:16:05;;;;;;;;;;;;;;;7.95;100.00;100525.94;5059247;28;19924;-82
2021/11/22 07:18:32;;;;;;;;;;;;;;;7.78;100.00;100534.00;5076087;28;19950;-82
2021/11/22 07:20:59;;;;;;;;;;;;;;;7.70;100.00;100532.25;5076493;28;19924;-82
2021/11/22 07:23:26;;;;;;;;;;;;;;;7.59;100.00;100532.03;5076133;28;19928;-83
2021/11/22 07:25:54;;;;;;;;;;;;;;;7.32;100.00;100530.31;5093916;28;19928;-82
2021/11/22 07:28:22;;;;;;;;;;;;;;;7.24;100.00;100536.91;5076161;28;20038;-82
2021/11/22 07:30:49;;;;;;;;;;;;;;;7.26;100.00;100554.84;5076059;28;20286;-83
2021/11/22 07:33:16;;;;;;;;;;;;;;;6.95;100.00;100556.94;5075741;28;19924;-82
2021/11/22 07:35:43;;;;;;;;;;;;;;;7.05;100.00;100556.34;5076113;28;19924;-82
2021/11/22 07:38:10;;;;;;;;;;;;;;;6.86;100.00;100564.69;5076311;28;19924;-82
2021/11/22 07:40:38;;;;;;;;;;;;;;;7.16;100.00;100554.63;5076115;28;19928;-82
2021/11/22 07:43:05;;;;;;;;;;;;;;;7.48;100.00;100558.88;5093612;28;20425;-82
2021/11/22 07:45:33;;;;;;;;;;;;;;;7.46;100.00;100572.31;5075677;28;19932;-83
2021/11/22 07:48:00;;;;;;;;;;;;;;;7.58;100.00;100569.38;5093499;28;20031;-82
2021/11/22 07:50:28;;;;;;;;;;;;;;;7.47;100.00;100578.72;5075777;28;20290;-83
2021/11/22 07:52:56;;;;;;;;;;;;;;;7.85;100.00;100573.88;5094094;28;20010;-82
2021/11/22 07:55:24;;;;;;;;;;;;;;;7.83;100.00;100581.78;5093729;28;19932;-82
2021/11/22 07:57:52;;;;;;;;;;;;;;;7.97;100.00;100582.06;5075834;28;20485;-82
2021/11/22 08:00:19;;;;;;;;;;;;;;;8.10;100.00;100580.72;5059062;28;19939;-83
2021/11/22 08:02:46;;;;;;;;;;;;;;;7.86;100.00;100586.63;5093444;28;19924;-85
2021/11/22 08:05:14;;;;;;;;;;;;;;;7.78;100.00;100589.66;5042229;28;19935;-82
2021/11/22 08:07:42;;;;;;;;;;;;;;;7.76;100.00;100591.97;5075767;28;19928;-83
2021/11/22 08:12:47;;;;;;;;;;;;;;;8.21;100.00;100603.97;5075631;28;20010;-82
2021/11/22 08:15:14;;;;;;;;;;;;;;;8.21;100.00;100590.06;5094934;28;19981;-86
2021/11/22 08:17:43;;;;;;;;;;;;;;;8.23;100.00;100600.84;5039434;28;19962;-86
2021/11/22 08:20:12;;;;;;;;;;;;;;;8.46;100.00;100613.59;5059936;28;19928;-86
2021/11/22 08:22:39;;;;;;;;;;;;;;;8.42;100.00;100618.31;5058988;28;20502;-86
2021/11/22 08:25:08;;;;;;;;;;;;;;;8.45;100.00;100620.34;5059336;28;20453;-86
2021/11/22 08:27:35;;;;;;;;;;;;;;;8.34;100.00;100630.50;5059242;28;20337;-86
2021/11/22 08:30:05;;;;;;;;;;;;;;;8.23;100.00;100623.94;5045276;28;19928;-86
2021/11/22 08:32:33;;;;;;;;;;;;;;;8.32;100.00;100620.91;5043025;28;19954;-86
2021/11/22 08:35:01;;;;;;;;;;;;;;;8.40;100.00;100620.69;5078780;28;19977;-86
2021/11/22 08:37:28;;;;;;;;;;;;;;;8.48;100.00;100616.03;5079018;28;19931;-86
2021/11/22 08:39:55;;;;;;;;;;;;;;;8.56;100.00;100626.09;5097196;28;19928;-87
2021/11/22 08:42:22;;;;;;;;;;;;;;;8.59;100.00;100628.13;5097021;28;19924;-87
2021/11/22 08:44:50;;;;;;;;;;;;;;;8.79;100.00;100616.53;5095522;28;19956;-87
2021/11/22 08:47:18;;;;;;;;;;;;;;;8.76;100.00;100625.66;5079000;28;20294;-86
2021/11/22 08:49:47;;;;;;;;;;;;;;;8.62;100.00;100631.00;5040957;28;20354;-78
2021/11/22 08:52:14;;;;;;;;;;;;;;;8.91;100.00;100635.03;5092126;28;19928;-90
2021/11/22 08:54:42;;;;;;;;;;;;;;;8.95;100.00;100628.31;5075689;28;20413;-87
2021/11/22 08:57:09;;;;;;;;;;;;;;;9.12;100.00;100629.75;5076296;28;20290;-85
2021/11/22 08:59:37;;;;;;;;;;;;;;;9.37;100.00;100627.34;5075951;28;19924;-84
2021/11/22 09:02:04;;;;;;;;;;;;;;;9.32;100.00;100641.59;5075639;28;19928;-84
2021/11/22 09:04:31;;;;;;;;;;;;;;;9.13;100.00;100634.97;5075788;28;20379;-86
2021/11/22 09:06:59;;;;;;;;;;;;;;;8.97;100.00;100633.53;5093353;28;20272;-84
2021/11/22 09:09:26;;;;;;;;;;;;;;;9.14;100.00;100646.94;5075705;28;19973;-82
2021/11/22 09:11:53;;;;;;;;;;;;;;;8.71;100.00;100651.03;5067651;28;19925;-82
2021/11/22 09:14:20;;;;;;;;;;;;;;;8.88;100.00;100647.75;5065654;28;19973;-83
2021/11/22 09:16:47;;;;;;;;;;;;;;;8.93;100.00;100650.22;5057244;28;20010;-83
2021/11/22 09:19:14;;;;;;;;;;;;;;;9.04;100.00;100648.38;5072682;28;20409;-83
2021/11/22 09:21:41;;;;;;;;;;;;;;;9.26;100.00;100654.25;5042549;28;19977;-80
2021/11/22 09:24:09;;;;;;;;;;;;;;;9.22;100.00;100654.22;5078888;28;20003;-81
2021/11/22 09:26:36;;;;;;;;;;;;;;;9.35;100.00;100660.38;5059052;28;19924;-86
2021/11/22 09:29:03;;;;;;;;;;;;;;;9.53;100.00;100653.84;5055700;28;20413;-83
2021/11/22 09:31:31;;;;;;;;;;;;;;;9.54;100.00;100663.03;5051056;28;19972;-82
2021/11/22 09:33:59;;;;;;;;;;;;;;;9.33;100.00;100659.97;5093493;28;19927;-82
2021/11/22 09:36:27;;;;;;;;;;;;;;;9.74;100.00;100664.50;5042211;28;20275;-78
2021/11/22 09:38:54;;;;;;;;;;;;;;;9.65;100.00;100666.78;5074109;28;20417;-81
2021/11/22 09:41:27;;;;;;;;;;;;;;;9.35;100.00;100663.16;5074616;28;19928;-81
2021/11/22 09:43:55;;;;;;;;;;;;;;;9.98;100.00;100659.22;5092676;28;19931;-81
2021/11/22 09:46:24;;;;;;;;;;;;;;;9.33;100.00;100657.19;5091227;28;19947;-80
2021/11/22 09:48:51;;;;;;;;;;;;;;;9.78;100.00;100670.94;5092346;28;20371;-79
2021/11/22 09:51:19;;;;;;;;;;;;;;;9.71;100.00;100662.47;5092105;28;20428;-78
2021/11/22 09:53:46;;;;;;;;;;;;;;;9.80;100.00;100666.56;5056718;28;19928;-78
2021/11/22 09:56:13;;;;;;;;;;;;;;;9.57;100.00;100670.66;5070401;28;20017;-77
2021/11/22 09:58:40;;;;;;;;;;;;;;;9.48;100.00;100667.34;5071442;28;19933;-80
2021/11/22 10:01:13;;;;;;;;;;;;;;;9.76;100.00;100678.88;5072425;28;19931;-82
2021/11/22 10:03:40;;;;;;;;;;;;;;;9.53;100.00;100680.94;5037867;28;20287;-82
2021/11/22 10:06:07;;;;;;;;;;;;;;;9.65;100.00;100652.84;5071782;28;19924;-78
2021/11/22 10:08:41;;;;;;;;;;;;;;;10.04;100.00;100674.44;5077685;28;19958;-79
2021/11/22 10:11:09;;;;;;;;;;;;;;;10.26;100.00;100675.50;5060456;28;19925;-78
2021/11/22 10:13:40;;;;;;;;;;;;;;;10.12;100.00;100675.34;5053722;28;20009;-78
2021/11/22 10:16:07;;;;;;;;;;;;;;;9.80;100.00;100674.16;5061738;28;19924;-81
2021/11/22 10:18:55;;;;;;;;;;;;;;;10.11;100.00;100673.75;5074840;28;19972;-80
2021/11/22 10:21:26;;;;;;;;;;;;;;;10.24;100.00;100681.47;5057831;28;20390;-83
2021/11/22 10:24:05;;;;;;;;;;;;;;;10.58;100.00;100679.44;5092759;28;20008;-81
2021/11/22 10:26:44;;;;;;;;;;;;;;;10.61;100.00;100667.50;5091213;28;19924;-76
2021/11/22 10:29:34;;;;;;;;;;;;;;;10.59;100.00;100664.25;5072827;28;19924;-81
2021/11/22 10:32:04;;;;;;;;;;;;;;;10.83;100.00;100672.06;5072791;28;19931;-76
2021/11/22 10:34:35;;;;;;;;;;;;;;;10.96;100.00;100673.38;5072848;28;20460;-76
2021/11/22 10:37:04;;;;;;;;;;;;;;;10.56;100.00;100667.81;5090751;28;19928;-76
2021/11/22 10:39:32;;;;;;;;;;;;;;;10.66;100.00;100665.13;5089976;28;19924;-77
2021/11/22 10:42:02;;;;;;;;;;;;;;;10.76;100.00;100669.22;5055143;28;20313;-77
2021/11/22 10:44:31;;;;;;;;;;;;;;;10.70;100.00;100671.56;5090654;28;19946;-77
2021/11/22 10:47:09;;;;;;;;;;;;;;;10.68;100.00;100670.34;5055679;28;19931;-77
2021/11/22 10:49:42;;;;;;;;;;;;;;;10.79;100.00;100672.06;5090780;28;19938;-77
2021/11/22 10:52:12;;;;;;;;;;;;;;;10.54;100.00;100664.63;5092695;28;20302;-83
2021/11/22 10:54:54;;;;;;;;;;;;;;;10.77;100.00;100668.03;5093881;28;19930;-87
2021/11/22 10:57:21;;;;;;;;;;;;;;;10.73;100.00;100665.22;5075891;28;19931;-81
2021/11/22 10:59:48;;;;;;;;;;;;;;;10.68;100.00;100659.97;5094218;28;19963;-80
2021/11/22 11:02:15;;;;;;;;;;;;;;;10.75;100.00;100667.63;5042975;28;20371;-80
2021/11/22 11:04:44;;;;;;;;;;;;;;;11.07;100.00;100654.69;5076113;28;19925;-80
2021/11/22 11:07:11;;;;;;;;;;;;;;;11.08;100.00;100659.09;5076000;28;19933;-79
2021/11/22 11:09:40;;;;;;;;;;;;;;;10.80;100.00;100661.66;5053192;28;19924;-81
2021/11/22 11:12:12;;;;;;;;;;;;;;;10.68;100.00;100664.75;5072242;28;19925;-76
2021/11/22 11:14:41;;;;;;;;;;;;;;;10.77;100.00;100665.22;5087222;28;19935;-77
2021/11/22 11:17:14;;;;;;;;;;;;;;;11.12;100.00;100651.50;5067808;28;19925;-77
2021/11/22 11:19:42;;;;;;;;;;;;;;;11.03;100.00;100662.25;5068046;28;19930;-81
2021/11/22 11:22:09;;;;;;;;;;;;;;;10.98;100.00;100668.19;5042131;28;19929;-80
2021/11/22 11:24:37;;;;;;;;;;;;;;;11.12;100.00;100667.53;5048434;28;19931;-83
2021/11/22 11:27:05;;;;;;;;;;;;;;;11.07;100.00;100674.28;5056097;28;19931;-85
2021/11/22 11:29:32;;;;;;;;;;;;;;;10.96;100.00;100670.59;5056142;28;19924;-78
2021/11/22 11:31:59;;;;;;;;;;;;;;;11.21;100.00;100670.78;5081339;28;19931;-78
2021/11/22 11:34:31;;;;;;;;;;;;;;;10.93;100.00;100674.94;5092985;28;19974;-81
2021/11/22 11:37:01;;;;;;;;;;;;;;;10.81;100.00;100678.03;5093918;28;19924;-83
2021/11/22 11:39:56;;;;;;;;;;;;;;;11.09;100.00;100679.50;5059332;28;19924;-83
2021/11/22 11:42:35;;;;;;;;;;;;;;;11.05;100.00;100681.44;5074904;28;19931;-83
2021/11/22 11:45:05;;;;;;;;;;;;;;;10.65;100.00;100685.09;5074905;28;19938;-82
2021/11/22 11:47:33;;;;;;;;;;;;;;;10.80;100.00;100681.22;5041994;28;19931;-83
2021/11/22 11:50:16;;;;;;;;;;;;;;;11.46;100.00;100678.13;5044479;28;19924;-83
2021/11/22 11:52:55;;;;;;;;;;;;;;;11.33;100.00;100679.63;5062335;28;19924;-83
2021/11/22 11:55:22;;;;;;;;;;;;;;;11.34;100.00;100681.25;5078992;28;19969;-82
2021/11/22 11:57:49;;;;;;;;;;;;;;;11.59;100.00;100676.59;5079040;28;19924;-83
2021/11/22 12:00:26;;;;;;;;;;;;;;;11.79;100.00;100674.31;5062582;28;19928;-83
2021/11/22 12:03:03;;;;;;;;;;;;;;;11.94;100.00;100682.41;5078735;28;19935;-83
2021/11/22 12:05:44;;;;;;;;;;;;;;;11.62;100.00;100675.84;5079054;28;19930;-83
2021/11/22 12:08:19;;;;;;;;;;;;;;;11.42;100.00;100687.72;5078807;28;19924;-83
2021/11/22 12:10:46;;;;;;;;;;;;;;;11.76;100.00;100680.72;5045490;28;19962;-83
2021/11/22 12:13:15;;;;;;;;;;;;;;;12.10;100.00;100680.06;5096690;28;20268;-83
2021/11/22 12:15:46;;;;;;;;;;;;;;;11.68;100.00;100679.88;5078547;28;19935;-83
2021/11/22 12:18:25;;;;;;;;;;;;;;;11.90;100.00;100687.19;5046954;28;19931;-83
2021/11/22 12:20:56;;;;;;;;;;;;;;;11.93;100.00;100680.81;5096597;28;19924;-83
2021/11/22 12:23:27;;;;;;;;;;;;;;;11.27;100.00;100681.19;5078322;28;19928;-83
2021/11/22 12:25:59;;;;;;;;;;;;;;;11.77;100.00;100688.72;5078588;28;19928;-83
2021/11/22 12:28:29;;;;;;;;;;;;;;;11.80;100.00;100679.53;5096594;28;19935;-83
2021/11/22 12:31:00;;;;;;;;;;;;;;;11.63;100.00;100677.44;5061794;28;19937;-83
2021/11/22 12:33:28;;;;;;;;;;;;;;;11.40;100.00;100670.50;5061613;28;20299;-82
2021/11/22 12:36:10;;;;;;;;;;;;;;;11.67;100.00;100667.09;5078223;28;19928;-83
2021/11/22 12:38:42;;;;;;;;;;;;;;;11.64;100.00;100670.66;5078791;28;19924;-83
2021/11/22 12:41:31;;;;;;;;;;;;;;;11.53;100.00;100661.38;5061461;28;19956;-83
2021/11/22 12:43:59;;;;;;;;;;;;;;;11.39;100.00;100661.28;5077881;28;20016;-83
2021/11/22 12:46:39;;;;;;;;;;;;;;;11.17;100.00;100656.75;5061608;28;20366;-83